Latest Weather Observations for Combienbar

IDV60801

Issued at 3:35 pm EDT Saturday 1 November 2014 (issued every 30 minutes, with the page automatically refreshed every 10 minutes)

About weather observations | Map of weather stations | Latest weather observations for VIC | Other Formats
Station Details ID: 084143 Name: COMBIENBAR AWS Lat: -37.34 Lon: 149.02 Height: 640.0 m
Data from the previous 72 hours. | See also: Recent months at Combienbar
Date/Time
EDT
Temp
°C
App
Temp
°C
Dew
Point
Rel
Hum
%
Delta-T
°C
Wind Press
QNH
hPa
Press
MSL
hPa
Rain
since 9 am
mm
Dir
 
Spd
km/h
Gust
km/h
Spd
kts
Gust
kts
01/03:30pm 9.8 8.9 9.3 97 0.3 SSW 4 9 2 5 1003.4 1001.6 5.6
01/03:00pm 10.0 8.8 9.5 97 0.3 SW 6 13 3 7 1003.5 1001.7 5.6
01/02:30pm 10.6 9.9 10.0 96 0.3 SSW 4 9 2 5 1003.6 1001.8 5.4
01/02:00pm 10.6 9.5 10.0 96 0.3 SW 6 13 3 7 1003.0 1001.2 5.0
01/01:30pm 11.0 10.8 10.4 96 0.3 WSW 2 7 1 4 1003.0 1001.2 4.6
01/01:00pm 11.7 11.7 11.1 96 0.3 SSW 2 7 1 4 1002.7 1001.0 2.4
01/12:30pm 11.9 11.7 10.5 91 0.7 SW 2 6 1 3 1002.7 1001.0 0.2
01/12:00pm 13.9 13.2 10.1 78 2.0 SW 4 7 2 4 1002.1 1000.3 0.0
01/11:30am 15.0 14.5 9.4 69 3.0 SW 2 6 1 3 1001.5 999.7 0.0
01/11:00am 14.9 14.8 9.3 69 3.0 CALM 0 4 0 2 1001.5 999.7 0.0
01/10:30am 16.7 16.4 8.7 59 4.2 CALM 0 0 0 0 1001.0 999.9 0.0
01/10:00am 17.4 17.1 8.8 57 4.6 CALM 0 0 0 0 1001.1 1000.0 0.0
01/09:30am 16.4 16.2 9.1 62 3.9 CALM 0 2 0 1 1001.8 1000.7 0.0
01/09:00am 16.5 15.3 8.2 58 4.4 SE 4 7 2 4 1001.5 1000.3 0.0
01/08:30am 16.2 15.2 7.2 55 4.6 NE 2 6 1 3 1001.4 1000.2 0.0
01/08:00am 14.7 14.1 7.5 62 3.7 CALM 0 4 0 2 1001.5 1000.3 0.0
01/07:30am 15.2 14.6 7.5 60 4.0 CALM 0 4 0 2 1002.1 1001.0 0.0
01/07:00am 14.8 14.0 6.6 58 4.1 CALM 0 4 0 2 1001.5 1000.3 0.0
01/06:30am 15.7 13.5 5.3 50 5.1 SSW 6 9 3 5 1001.5 1000.3 0.0
01/06:25am 16.1 13.9 5.1 48 5.4 S 6 9 3 5 1001.3 1000.1 0.0
01/06:00am 21.2 18.0 3.0 30 9.0 N 9 17 5 9 1000.4 999.3 0.0
01/05:30am 21.5 16.2 1.7 27 9.5 N 19 33 10 18 999.8 998.6 0.0
01/05:00am 22.8 17.8 1.2 24 10.4 N 17 32 9 17 999.9 998.7 0.0
01/04:30am 23.6 18.1 0.7 22 10.9 N 19 46 10 25 999.0 997.9 0.0
01/04:00am 23.9 19.6 0.9 22 11.1 N 13 20 7 11 999.0 997.9 0.0
01/03:30am 24.4 16.3 0.7 21 11.4 NNW 33 59 18 32 999.1 998.0 0.0
01/03:21am 23.2 16.0 0.9 23 10.6 N 28 56 15 30 998.9 997.8 0.0
01/03:00am 21.9 16.9 1.6 26 9.8 N 17 41 9 22 999.4 998.3 0.0
01/02:30am 22.5 18.3 1.5 25 10.1 N 13 35 7 19 1000.2 999.0 0.0
01/02:00am 22.6 18.5 2.1 26 10.0 N 13 32 7 17 1000.7 999.6 0.0
01/01:30am 22.5 18.8 2.6 27 9.8 N 11 26 6 14 1001.6 1000.4 0.0
01/01:00am 22.4 18.8 3.0 28 9.6 N 11 20 6 11 1002.7 1001.6 0.0
01/12:30am 22.7 19.2 3.3 28 9.6 N 11 30 6 16 1003.6 1002.5 0.0
01/12:00am 22.6 19.5 3.7 29 9.5 NNE 9 22 5 12 1004.2 1003.1 0.0
 
Date/Time
EDT
Temp
°C
App
Temp
°C
Dew
Point
Rel
Hum
%
Delta-T
°C
Wind Press
QNH
hPa
Press
MSL
hPa
Rain
since 9 am
mm
Dir
 
Spd
km/h
Gust
km/h
Spd
kts
Gust
kts
31/11:30pm 22.9 19.4 3.4 28 9.7 N 11 22 6 12 1004.7 1003.6 0.0
31/11:00pm 22.7 19.6 3.8 29 9.5 NNE 9 15 5 8 1005.0 1003.9 0.0
31/10:30pm 22.8 19.7 3.4 28 9.7 NNE 9 19 5 10 1005.3 1004.2 0.0
31/10:00pm 22.0 19.2 5.0 33 8.7 NNE 9 19 5 10 1005.6 1004.5 0.0
31/09:30pm 21.8 19.5 5.7 35 8.3 NNE 7 11 4 6 1006.2 1005.1 0.0
31/09:00pm 22.7 20.5 5.2 32 9.0 NNE 6 11 3 6 1006.5 1005.4 0.0
31/08:30pm 23.9 21.4 4.8 29 9.8 N 7 13 4 7 1006.6 1005.5 0.0
31/08:00pm 23.6 21.1 5.0 30 9.6 N 7 11 4 6 1006.6 1005.5 0.0
31/07:30pm 23.3 21.2 5.7 32 9.2 N 6 13 3 7 1006.7 1005.6 0.0
31/07:00pm 23.1 21.6 6.8 35 8.7 N 4 11 2 6 1006.8 1005.7 0.0
31/06:30pm 24.1 22.5 6.4 32 9.4 N 4 9 2 5 1006.8 1005.7 0.0
31/06:00pm 24.1 22.2 6.8 33 9.3 N 6 9 3 5 1007.0 1005.9 0.0
31/05:30pm 24.4 23.8 10.3 41 8.0 N 4 9 2 5 1007.2 1006.2 0.0
31/05:00pm 23.5 24.9 15.5 60 5.0 N 2 7 1 4 1007.2 1006.2 0.0
31/04:30pm 23.8 25.6 15.6 60 5.1 CALM 0 0 0 0 1007.4 1006.4 0.0
31/04:00pm 24.7 26.0 14.2 52 6.4 CALM 0 6 0 3 1007.5 1006.5 0.0
31/03:30pm 25.0 26.6 15.0 53 6.2 CALM 0 2 0 1 1007.9 1006.8 0.0
31/03:00pm 25.3 27.0 15.3 54 6.2 CALM 0 0 0 0 1008.2 1007.1 0.0
31/02:30pm 25.9 27.3 15.3 52 6.6 SSW 2 6 1 3 1008.7 1007.7 0.0
31/02:00pm 24.2 24.2 12.5 48 6.9 S 4 9 2 5 1009.0 1008.0 0.0
31/01:30pm 27.1 24.8 4.8 24 11.7 W 6 15 3 8 1009.2 1008.2 0.0
31/01:00pm 26.2 24.9 7.7 31 10.2 W 4 15 2 8 1009.7 1008.6 0.0
31/12:30pm 25.5 23.7 7.1 31 10.0 W 6 17 3 9 1010.0 1009.0 0.0
31/12:00pm 25.6 23.4 5.2 27 10.7 W 6 13 3 7 1010.3 1009.3 0.0
31/11:30am 25.0 22.7 5.7 29 10.2 WNW 7 19 4 10 1010.8 1009.8 0.0
31/11:00am 24.6 22.8 7.3 33 9.4 NW 6 13 3 7 1011.3 1010.3 0.0
31/10:30am 23.6 21.6 6.4 33 9.1 W 6 17 3 9 1011.7 1010.7 0.0
31/10:00am 22.7 20.6 6.0 34 8.7 WNW 6 17 3 9 1011.9 1010.9 0.0
31/09:30am 21.9 19.8 4.0 31 9.0 WSW 4 15 2 8 1012.1 1011.1 0.0
31/09:00am 20.4 19.5 7.7 44 6.8 NNE 2 6 1 3 1012.1 1011.1 0.0
31/08:30am 20.0 18.9 6.7 42 6.9 NE 2 9 1 5 1012.4 1011.4 0.0
31/08:00am 18.1 17.0 6.9 48 5.8 NNE 2 6 1 3 1012.2 1011.2 0.0
31/07:30am 18.2 17.6 7.3 49 5.7 CALM 0 0 0 0 1012.2 1011.2 0.0
31/07:00am 16.7 15.5 4.7 45 5.9 CALM 0 0 0 0 1012.1 1011.1 0.0
31/06:30am 15.2 13.7 3.0 44 5.7 CALM 0 0 0 0 1012.2 1011.2 0.0
31/06:00am 14.0 12.6 3.5 49 4.9 CALM 0 0 0 0 1012.1 1011.1 0.0
31/05:30am 12.4 11.1 4.1 57 3.9 CALM 0 0 0 0 1011.9 1010.9 0.0
31/05:00am 9.4 9.1 8.5 94 0.5 CALM 0 0 0 0 1011.8 1010.8 0.0
31/04:30am 8.6 8.1 8.0 96 0.3 CALM 0 0 0 0 1012.2 1011.2 0.0
31/04:00am 9.5 9.3 9.0 97 0.3 CALM 0 0 0 0 1012.7 1011.8 0.0
31/03:30am 9.4 9.1 8.8 96 0.3 CALM 0 0 0 0 1013.2 1012.2 0.0
31/03:00am 9.5 9.3 9.0 97 0.3 CALM 0 0 0 0 1013.4 1012.4 0.0
31/02:30am 9.3 9.0 8.7 96 0.3 CALM 0 0 0 0 1013.5 1012.5 0.0
31/02:00am 9.3 9.0 8.7 96 0.3 CALM 0 0 0 0 1013.7 1012.7 0.0
31/01:30am 9.6 9.3 8.8 95 0.4 CALM 0 0 0 0 1014.0 1013.1 0.0
31/01:00am 9.4 9.1 8.5 94 0.5 CALM 0 4 0 2 1014.1 1013.2 0.0
31/12:30am 9.7 9.0 8.6 93 0.6 NNE 2 7 1 4 1014.4 1013.5 0.0
31/12:00am 10.4 10.3 9.3 93 0.6 CALM 0 4 0 2 1014.7 1013.7 0.0
 
Date/Time
EDT
Temp
°C
App
Temp
°C
Dew
Point
Rel
Hum
%
Delta-T
°C
Wind Press
QNH
hPa
Press
MSL
hPa
Rain
since 9 am
mm
Dir
 
Spd
km/h
Gust
km/h
Spd
kts
Gust
kts
30/11:30pm 10.5 10.4 9.3 92 0.6 CALM 0 0 0 0 1015.0 1014.0 0.0
30/11:00pm 10.3 10.1 9.1 92 0.6 CALM 0 0 0 0 1015.2 1014.3 0.0
30/10:30pm 10.4 10.2 9.2 92 0.6 CALM 0 0 0 0 1015.3 1014.4 0.0
30/10:00pm 10.5 10.4 9.3 92 0.6 CALM 0 0 0 0 1015.5 1014.6 0.0
30/09:30pm 10.8 10.7 9.6 92 0.6 CALM 0 0 0 0 1015.7 1014.8 0.0
30/09:00pm 11.2 11.2 9.8 91 0.7 CALM 0 0 0 0 1015.6 1014.7 0.0
30/08:30pm 11.7 11.7 9.8 88 1.0 CALM 0 0 0 0 1015.3 1014.4 0.0
30/08:00pm 12.2 12.2 9.8 85 1.3 CALM 0 2 0 1 1015.4 1014.5 0.0
30/07:30pm 12.7 12.7 9.7 82 1.6 CALM 0 2 0 1 1015.1 1014.1 0.0
30/07:00pm 13.3 13.2 9.5 78 2.0 CALM 0 0 0 0 1014.8 1013.8 0.0
30/06:30pm 14.1 14.1 9.9 76 2.2 CALM 0 4 0 2 1014.4 1013.5 0.0
30/06:00pm 14.9 14.7 10.5 75 2.4 SSW 2 6 1 3 1014.1 1013.2 0.0
30/05:30pm 16.1 16.1 11.3 73 2.7 SW 2 7 1 4 1013.5 1012.5 0.0
30/05:00pm 18.6 19.0 12.4 67 3.6 SW 2 7 1 4 1013.0 1012.0 0.0
30/04:30pm 19.2 19.7 12.9 67 3.7 SSW 2 6 1 3 1012.6 1011.7 0.0
30/04:00pm 20.5 21.1 13.2 63 4.3 SSW 2 6 1 3 1012.6 1011.7 0.0
30/03:30pm 21.1 21.4 13.3 61 4.6 SSW 4 6 2 3 1012.6 1011.7 0.0
30/03:00pm 21.5 22.5 13.2 59 4.9 CALM 0 4 0 2 1012.9 1011.9 0.0
30/02:30pm 20.9 21.2 12.1 57 5.1 SSW 2 6 1 3 1013.1 1012.1 0.0
30/02:00pm 20.0 19.5 10.7 55 5.2 ESE 4 11 2 6 1013.4 1012.4 0.0
30/01:30pm 20.3 20.9 12.0 59 4.8 CALM 0 4 0 2 1013.5 1012.5 0.0
30/01:00pm 19.6 19.8 11.9 61 4.4 SW 2 4 1 2 1013.7 1012.7 0.0
30/12:30pm 19.0 19.0 11.1 60 4.4 SSW 2 4 1 2 1014.0 1013.1 0.0
30/12:00pm 18.4 18.8 11.2 63 4.0 CALM 0 4 0 2 1014.3 1013.4 0.0
30/11:30am 17.7 17.7 11.3 66 3.6 SW 2 6 1 3 1014.6 1013.6 0.0
30/11:00am 16.8 17.1 10.9 68 3.3 CALM 0 4 0 2 1015.1 1014.1 0.0
30/10:30am 14.9 14.7 10.3 74 2.5 SSW 2 4 1 2 1015.1 1014.1 0.0
30/10:00am 15.5 15.3 10.3 71 2.8 E 2 6 1 3 1015.2 1014.3 0.0
30/09:30am 13.4 12.8 9.1 75 2.3 E 2 6 1 3 1014.9 1013.9 0.0
30/09:00am 15.3 14.8 10.9 75 2.4 ENE 4 6 2 3 1014.7 1013.7 0.0
30/08:30am 13.6 13.1 9.5 76 2.2 NE 2 7 1 4 1014.8 1013.8 0.0
30/08:00am 12.9 12.9 9.7 81 1.7 CALM 0 0 0 0 1015.0 1014.0 0.0
30/07:30am 10.1 9.7 8.2 88 1.0 CALM 0 0 0 0 1014.9 1013.9 0.0
30/07:00am 8.9 8.3 7.4 90 0.7 CALM 0 0 0 0 1014.9 1013.9 0.0
30/06:30am 8.9 8.2 6.9 87 1.0 CALM 0 0 0 0 1014.7 1013.7 0.0
30/06:00am 9.3 8.6 6.9 85 1.2 CALM 0 0 0 0 1014.4 1013.5 0.0
30/05:30am 9.4 8.8 7.2 86 1.1 CALM 0 0 0 0 1014.2 1013.3 0.0
30/05:00am 9.5 8.9 7.4 87 1.0 CALM 0 0 0 0 1014.3 1013.4 0.0
30/04:30am 10.4 9.6 6.5 77 1.9 CALM 0 0 0 0 1014.1 1013.2 0.0
30/04:00am 11.6 10.4 6.5 71 2.5 WNW 2 6 1 3 1014.0 1013.1 0.0
30/03:30am 10.0 9.5 7.8 86 1.1 CALM 0 0 0 0 1014.3 1013.4 0.0
30/03:00am 9.5 9.0 7.9 90 0.8 CALM 0 0 0 0 1014.7 1013.7 0.0
30/02:30am 9.1 8.6 7.7 91 0.7 CALM 0 0 0 0 1014.9 1013.9 0.0
30/02:00am 8.7 8.1 7.3 91 0.7 CALM 0 0 0 0 1015.3 1014.4 0.0
30/01:30am 8.6 7.9 7.1 90 0.7 CALM 0 0 0 0 1015.6 1014.7 0.0
30/01:00am 9.0 8.3 7.1 88 0.9 CALM 0 0 0 0 1016.2 1015.2 0.0
30/12:30am 10.0 9.4 7.6 85 1.2 CALM 0 0 0 0 1016.7 1015.8 0.0
30/12:00am 9.9 9.3 7.5 85 1.2 CALM 0 0 0 0 1016.8 1015.9 0.0
 
Date/Time
EDT
Temp
°C
App
Temp
°C
Dew
Point
Rel
Hum
%
Delta-T
°C
Wind Press
QNH
hPa
Press
MSL
hPa
Rain
since 9 am
mm
Dir
 
Spd
km/h
Gust
km/h
Spd
kts
Gust
kts
29/11:30pm 9.9 9.3 7.5 85 1.2 CALM 0 0 0 0 1016.9 1016.0 0.0
29/11:00pm 10.0 9.4 7.4 84 1.3 CALM 0 0 0 0 1017.0 1016.1 0.0
29/10:30pm 10.0 9.4 7.6 85 1.2 CALM 0 0 0 0 1017.3 1016.4 0.0
29/10:00pm 9.9 9.3 7.2 83 1.3 CALM 0 0 0 0 1017.5 1016.6 0.0
29/09:30pm 10.0 9.4 7.3 83 1.3 CALM 0 0 0 0 1017.5 1016.6 0.0
29/09:00pm 10.1 9.5 7.3 83 1.4 CALM 0 0 0 0 1017.3 1016.4 0.0
29/08:30pm 10.3 9.8 7.7 84 1.3 CALM 0 0 0 0 1016.9 1016.0 0.0
29/08:00pm 10.7 10.2 7.9 83 1.4 CALM 0 4 0 2 1016.6 1015.7 0.0
29/07:30pm 11.6 11.3 8.5 81 1.6 CALM 0 4 0 2 1016.2 1015.2 0.0
29/07:00pm 13.0 12.8 9.1 77 2.0 CALM 0 4 0 2 1015.8 1014.9 0.0
29/06:30pm 14.7 14.3 9.7 72 2.7 SSW 2 4 1 2 1015.3 1014.4 0.0
29/06:00pm 15.7 15.6 9.6 67 3.3 CALM 0 0 0 0 1015.0 1014.0 0.0
29/05:30pm 17.4 17.3 9.6 60 4.2 CALM 0 0 0 0 1014.9 1013.9 0.0
29/05:00pm 18.9 18.9 9.9 56 4.9 CALM 0 2 0 1 1014.8 1013.8 0.0
29/04:30pm 19.2 19.0 9.1 52 5.5 CALM 0 4 0 2 1014.8 1013.8 0.0
29/04:00pm 19.6 19.2 8.3 48 6.0 CALM 0 4 0 2 1014.9 1013.9 0.0

Other Formats:

Comma delimited format used in spreadsheet applications
http://www.bom.gov.au/fwo/IDV60801/IDV60801.94914.axf

JavaScript Object Notation format (JSON) in row-major order
http://www.bom.gov.au/fwo/IDV60801/IDV60801.94914.json